createdAt,value
2023-04-21T00:01:46.190Z,24.27
2023-04-21T00:04:13.696Z,23.73
2023-04-21T00:06:41.607Z,23.42
2023-04-21T00:09:08.837Z,24.95
2023-04-21T00:11:35.966Z,24.65
2023-04-21T00:14:02.855Z,23.25
2023-04-21T00:16:29.665Z,23.65
2023-04-21T00:18:56.324Z,21.58
2023-04-21T00:21:22.978Z,21.45
2023-04-21T00:23:50.120Z,23.15
2023-04-21T00:26:16.828Z,23.02
2023-04-21T00:28:43.494Z,23.17
2023-04-21T00:31:11.242Z,22.75
2023-04-21T00:33:38.036Z,21.50
2023-04-21T00:36:05.016Z,22.90
2023-04-21T00:38:31.677Z,19.95
2023-04-21T00:40:58.292Z,20.05
2023-04-21T00:43:27.919Z,20.20
2023-04-21T00:45:54.561Z,19.90
2023-04-21T00:48:21.211Z,21.55
2023-04-21T00:50:48.015Z,21.35
2023-04-21T00:53:15.774Z,21.10
2023-04-21T00:55:42.531Z,22.80
2023-04-21T00:58:09.158Z,19.90
2023-04-21T01:00:36.406Z,21.50
2023-04-21T01:03:04.644Z,21.67
2023-04-21T01:05:31.878Z,20.40
2023-04-21T01:07:58.549Z,19.58
2023-04-21T01:10:25.348Z,21.92
2023-04-21T01:12:52.008Z,20.73
2023-04-21T01:15:18.775Z,20.85
2023-04-21T01:17:45.591Z,21.20
2023-04-21T01:20:14.070Z,21.23
2023-04-21T01:22:42.247Z,18.95
2023-04-21T01:25:09.738Z,18.90
2023-04-21T01:27:36.501Z,19.00
2023-04-21T01:30:04.871Z,20.27
2023-04-21T01:32:31.890Z,18.17
2023-04-21T01:35:00.076Z,19.48
2023-04-21T01:37:30.649Z,18.65
2023-04-21T01:40:01.083Z,17.52
2023-04-21T01:42:29.695Z,18.60
2023-04-21T01:44:56.549Z,20.17
2023-04-21T01:47:24.428Z,19.52
2023-04-21T01:49:51.237Z,20.63
2023-04-21T01:52:18.218Z,19.80
2023-04-21T01:54:44.841Z,21.05
2023-04-21T01:57:11.695Z,19.50
2023-04-21T01:59:38.449Z,19.05
2023-04-21T02:02:05.385Z,19.50
2023-04-21T02:04:32.279Z,19.10
2023-04-21T02:06:59.084Z,19.52
2023-04-21T02:09:25.762Z,18.60
2023-04-21T02:11:52.345Z,17.63
2023-04-21T02:14:18.976Z,18.13
2023-04-21T02:16:45.721Z,16.40
2023-04-21T02:19:12.461Z,18.80
2023-04-21T02:21:39.087Z,17.20
2023-04-21T02:24:05.874Z,20.73
2023-04-21T02:26:32.587Z,19.95
2023-04-21T02:28:59.481Z,20.77
2023-04-21T02:31:26.302Z,21.80
2023-04-21T02:33:54.514Z,23.45
2023-04-21T02:36:21.241Z,23.10
2023-04-21T02:38:47.868Z,22.25
2023-04-21T02:41:14.470Z,22.92
2023-04-21T02:43:41.396Z,21.52
2023-04-21T02:46:08.537Z,23.15
2023-04-21T02:48:36.255Z,23.63
2023-04-21T02:51:03.062Z,23.65
2023-04-21T02:53:29.816Z,24.30
2023-04-21T02:55:56.432Z,27.33
2023-04-21T02:58:23.432Z,24.23
2023-04-21T03:00:50.149Z,25.42
2023-04-21T03:03:17.028Z,24.73
2023-04-21T03:05:43.776Z,23.63
2023-04-21T03:08:10.412Z,24.33
2023-04-21T03:10:38.343Z,25.48
2023-04-21T03:13:04.981Z,26.65
2023-04-21T03:15:31.973Z,24.05
2023-04-21T03:17:58.659Z,24.67
2023-04-21T03:20:25.466Z,25.88
2023-04-21T03:22:54.180Z,24.65
2023-04-21T03:25:20.915Z,25.60
2023-04-21T03:27:47.541Z,24.23
2023-04-21T03:30:14.298Z,28.35
2023-04-21T03:32:41.092Z,26.08
2023-04-21T03:35:07.957Z,24.77
2023-04-21T03:37:34.621Z,25.98
2023-04-21T03:40:01.353Z,25.27
2023-04-21T03:42:30.095Z,25.30
2023-04-21T03:44:56.785Z,23.95
2023-04-21T03:47:23.455Z,25.75
2023-04-21T03:49:50.290Z,26.02
2023-04-21T03:52:16.930Z,25.05
2023-04-21T03:54:43.655Z,23.73
2023-04-21T03:57:10.326Z,26.58
2023-04-21T03:59:36.944Z,24.00
2023-04-21T04:02:03.765Z,23.55
2023-04-21T04:04:30.852Z,24.13
2023-04-21T04:06:57.640Z,24.80
2023-04-21T04:09:24.579Z,23.02
2023-04-21T04:11:51.223Z,23.02
2023-04-21T04:14:18.031Z,23.90
2023-04-21T04:16:44.633Z,23.45
2023-04-21T04:19:11.599Z,23.40
2023-04-21T04:21:38.768Z,23.08
2023-04-21T04:24:05.578Z,21.42
2023-04-21T04:26:35.732Z,22.63
2023-04-21T04:29:02.453Z,21.90
2023-04-21T04:31:32.564Z,21.65
2023-04-21T04:33:59.298Z,22.52
2023-04-21T04:36:25.932Z,21.90
2023-04-21T04:38:52.656Z,21.88
2023-04-21T04:41:20.905Z,23.05
2023-04-21T04:43:47.558Z,21.42
2023-04-21T04:46:14.357Z,21.60
2023-04-21T04:48:41.249Z,21.95
2023-04-21T04:51:09.144Z,21.50
2023-04-21T04:53:35.831Z,21.88
2023-04-21T04:56:02.645Z,21.98
2023-04-21T04:58:29.258Z,22.63
2023-04-21T05:00:55.898Z,20.45
2023-04-21T05:03:22.707Z,21.80
2023-04-21T05:05:49.559Z,21.40
2023-04-21T05:08:18.037Z,19.25
2023-04-21T05:10:44.975Z,18.85
2023-04-21T05:13:11.577Z,20.42
2023-04-21T05:15:38.224Z,21.50
2023-04-21T05:18:05.078Z,19.85
2023-04-21T05:20:31.849Z,20.15
2023-04-21T05:22:58.479Z,19.80
2023-04-21T05:25:25.378Z,20.33
2023-04-21T05:27:52.036Z,20.60
2023-04-21T05:30:18.766Z,19.35
2023-04-21T05:32:45.446Z,18.60
2023-04-21T05:35:12.127Z,21.67
2023-04-21T05:37:38.757Z,20.40
2023-04-21T05:40:06.114Z,17.98
2023-04-21T05:42:32.861Z,21.40
2023-04-21T05:44:59.585Z,19.00
2023-04-21T05:47:26.307Z,20.67
2023-04-21T05:49:53.776Z,19.20
2023-04-21T05:52:21.775Z,21.35
2023-04-21T05:54:48.574Z,20.83
2023-04-21T05:57:16.643Z,21.27
2023-04-21T05:59:43.801Z,22.05
2023-04-21T06:02:11.287Z,21.85
2023-04-21T06:04:38.198Z,20.65
2023-04-21T06:07:10.330Z,20.58
2023-04-21T06:09:37.276Z,20.55
2023-04-21T06:12:04.138Z,20.70
2023-04-21T06:14:30.812Z,20.45
2023-04-21T06:16:57.474Z,21.05
2023-04-21T06:19:24.209Z,19.52
2023-04-21T06:21:50.964Z,21.38
2023-04-21T06:24:24.793Z,20.55
2023-04-21T06:26:52.795Z,20.85
2023-04-21T06:29:20.108Z,21.00
2023-04-21T06:31:47.273Z,20.80
2023-04-21T06:34:13.992Z,20.25
2023-04-21T06:36:40.648Z,21.20
2023-04-21T06:39:07.282Z,20.10
2023-04-21T06:41:33.971Z,18.48
2023-04-21T06:44:00.710Z,22.17
2023-04-21T06:46:27.418Z,21.40
2023-04-21T06:48:54.098Z,19.75
2023-04-21T06:51:20.719Z,19.58
2023-04-21T06:53:47.355Z,20.52
2023-04-21T06:56:13.994Z,18.45
2023-04-21T06:58:40.752Z,18.65
2023-04-21T07:01:07.434Z,20.30
2023-04-21T07:03:34.202Z,19.08
2023-04-21T07:06:01.310Z,20.30
2023-04-21T07:08:27.966Z,21.33
2023-04-21T07:10:54.682Z,21.48
2023-04-21T07:13:21.353Z,20.67
2023-04-21T07:15:48.010Z,20.05
2023-04-21T07:18:14.986Z,19.88
2023-04-21T07:20:41.643Z,20.60
2023-04-21T07:23:08.256Z,20.10
2023-04-21T07:25:34.984Z,20.60
2023-04-21T07:28:03.159Z,19.73
2023-04-21T07:30:30.285Z,21.02
2023-04-21T07:32:58.081Z,19.67
2023-04-21T07:35:25.655Z,21.80
2023-04-21T07:37:52.356Z,21.63
2023-04-21T07:40:19.055Z,20.52
2023-04-21T07:42:45.897Z,19.73
2023-04-21T07:45:12.589Z,20.42
2023-04-21T07:47:39.346Z,20.30
2023-04-21T07:50:06.711Z,17.70
2023-04-21T07:52:33.375Z,19.85
2023-04-21T07:55:00.032Z,20.95
2023-04-21T07:57:26.803Z,19.15
2023-04-21T07:59:53.423Z,20.30
2023-04-21T08:02:20.243Z,18.25
2023-04-21T08:04:46.996Z,18.75
2023-04-21T08:07:15.284Z,19.85
2023-04-21T08:09:42.553Z,18.95
2023-04-21T08:12:09.202Z,19.58
2023-04-21T08:14:35.869Z,17.80
2023-04-21T08:17:02.550Z,19.05
2023-04-21T08:19:29.250Z,20.10
2023-04-21T08:21:55.909Z,17.98
2023-04-21T08:24:22.926Z,17.50
2023-04-21T08:26:49.896Z,17.77
2023-04-21T08:29:16.679Z,16.85
2023-04-21T08:31:43.378Z,16.08
2023-04-21T08:34:10.129Z,15.90
2023-04-21T08:36:36.757Z,17.02
2023-04-21T08:39:04.045Z,18.08
2023-04-21T08:41:30.726Z,16.63
2023-04-21T08:43:57.385Z,17.50
2023-04-21T08:46:24.519Z,15.15
2023-04-21T08:48:53.121Z,15.00
2023-04-21T08:51:23.786Z,15.23
2023-04-21T08:53:50.532Z,13.57
2023-04-21T08:56:17.469Z,13.32
2023-04-21T08:58:44.175Z,13.68
2023-04-21T09:01:12.053Z,13.50
2023-04-21T09:03:39.068Z,14.07
2023-04-21T09:06:09.840Z,12.82
2023-04-21T09:08:43.107Z,13.25
2023-04-21T09:11:14.123Z,13.70
2023-04-21T09:13:43.135Z,14.23
2023-04-21T09:16:23.437Z,13.30
2023-04-21T09:18:51.407Z,13.55
2023-04-21T09:21:19.797Z,13.10
2023-04-21T09:23:53.245Z,14.10
2023-04-21T09:26:23.111Z,13.55
2023-04-21T09:28:52.670Z,17.17
2023-04-21T09:31:29.030Z,13.50
2023-04-21T09:33:59.398Z,13.90
2023-04-21T09:36:29.664Z,12.95
2023-04-21T09:39:20.544Z,13.60
2023-04-21T09:41:44.475Z,13.35
2023-04-21T09:44:11.103Z,13.77
2023-04-21T09:46:38.386Z,13.68
2023-04-21T09:49:06.389Z,13.73
2023-04-21T09:54:28.572Z,14.00
2023-04-21T09:56:58.115Z,14.73
2023-04-21T09:59:27.573Z,14.15
2023-04-21T10:01:55.331Z,13.87
2023-04-21T10:04:24.003Z,14.70
2023-04-21T10:06:51.566Z,13.50
2023-04-21T10:09:21.271Z,14.33
2023-04-21T10:11:48.123Z,12.30
2023-04-21T10:14:14.767Z,13.00
2023-04-21T10:16:42.852Z,13.77
2023-04-21T10:19:35.457Z,14.03
2023-04-21T10:22:02.421Z,13.00
2023-04-21T10:24:30.408Z,14.40
2023-04-21T10:27:02.226Z,14.13
2023-04-21T10:29:40.155Z,14.30
2023-04-21T10:32:11.180Z,13.77
2023-04-21T10:34:38.753Z,13.60
2023-04-21T10:37:05.488Z,14.27
2023-04-21T10:39:37.057Z,15.40
2023-04-21T10:42:15.672Z,15.27
2023-04-21T10:44:54.134Z,14.80
2023-04-21T10:47:43.470Z,14.00
2023-04-21T10:50:27.826Z,13.90
2023-04-21T10:53:06.693Z,15.73
2023-04-21T10:55:33.340Z,14.52
2023-04-21T10:58:03.247Z,14.40
2023-04-21T11:00:30.260Z,14.50
2023-04-21T11:03:03.118Z,13.60
2023-04-21T11:05:41.124Z,13.50
2023-04-21T11:08:15.511Z,14.00
2023-04-21T11:10:43.920Z,13.90
2023-04-21T11:13:11.353Z,12.80
2023-04-21T11:15:38.007Z,12.67
2023-04-21T11:18:07.190Z,12.60
2023-04-21T11:20:34.149Z,12.90
2023-04-21T11:23:00.846Z,11.67
2023-04-21T11:25:27.456Z,12.37
2023-04-21T11:28:00.142Z,12.50
2023-04-21T11:30:34.270Z,12.80
2023-04-21T11:33:01.816Z,10.90
2023-04-21T11:35:28.562Z,11.87
2023-04-21T11:37:56.011Z,13.00
2023-04-21T11:40:22.676Z,13.00
2023-04-21T11:42:50.221Z,12.70
2023-04-21T11:45:21.239Z,12.17
2023-04-21T11:47:49.081Z,11.70
2023-04-21T11:50:32.148Z,11.20
2023-04-21T11:52:58.944Z,12.00
2023-04-21T11:55:25.678Z,11.87
2023-04-21T11:57:52.424Z,11.97
2023-04-21T12:00:19.847Z,11.83
2023-04-21T12:02:56.280Z,11.00
2023-04-21T12:05:24.110Z,12.07
2023-04-21T12:07:52.278Z,12.63
2023-04-21T12:10:20.945Z,13.27
2023-04-21T12:12:48.236Z,13.07
2023-04-21T12:15:23.008Z,13.55
2023-04-21T12:17:52.224Z,14.25
2023-04-21T12:20:20.973Z,13.10
2023-04-21T12:22:48.504Z,13.25
2023-04-21T12:25:15.832Z,13.27
2023-04-21T12:27:52.587Z,11.70
2023-04-21T12:30:20.240Z,11.40
2023-04-21T12:32:48.061Z,11.35
2023-04-21T12:35:14.905Z,12.53
2023-04-21T12:37:41.577Z,12.43
2023-04-21T12:40:08.766Z,12.53
2023-04-21T12:42:37.704Z,12.90
2023-04-21T12:45:05.657Z,13.00
2023-04-21T12:47:32.495Z,13.27
2023-04-21T12:49:59.150Z,12.82
2023-04-21T12:52:26.816Z,12.85
2023-04-21T12:54:53.646Z,14.10
2023-04-21T12:57:21.715Z,12.95
2023-04-21T12:59:48.846Z,13.52
2023-04-21T13:02:15.650Z,13.15
2023-04-21T13:04:42.598Z,12.52
2023-04-21T13:07:09.891Z,14.23
2023-04-21T13:09:36.578Z,12.10
2023-04-21T13:12:03.347Z,12.23
2023-04-21T13:14:30.245Z,12.50
2023-04-21T13:16:57.142Z,11.85
2023-04-21T13:19:24.028Z,11.57
2023-04-21T13:21:53.457Z,11.45
2023-04-21T13:24:21.017Z,13.32
2023-04-21T13:26:47.697Z,12.82
2023-04-21T13:29:14.409Z,12.90
2023-04-21T13:31:41.148Z,11.35
2023-04-21T13:34:07.864Z,11.77
2023-04-21T13:36:34.555Z,11.68
2023-04-21T13:39:01.968Z,12.18
2023-04-21T13:41:28.819Z,11.80
2023-04-21T13:43:55.561Z,11.25
2023-04-21T13:46:22.546Z,12.38
2023-04-21T13:48:51.569Z,11.35
2023-04-21T13:51:19.315Z,11.68
2023-04-21T13:53:46.088Z,12.50
2023-04-21T13:56:13.857Z,10.75
2023-04-21T13:58:41.538Z,11.30
2023-04-21T14:01:08.229Z,10.75
2023-04-21T14:03:35.755Z,10.80
2023-04-21T14:06:02.639Z,11.82
2023-04-21T14:08:29.291Z,10.63
2023-04-21T14:10:56.542Z,10.43
2023-04-21T14:13:35.019Z,10.70
2023-04-21T14:16:04.620Z,9.68
2023-04-21T14:18:32.767Z,9.60
2023-04-21T14:20:59.462Z,9.38
2023-04-21T14:23:26.142Z,9.35
2023-04-21T14:25:54.794Z,11.18
2023-04-21T14:28:21.841Z,9.85
2023-04-21T14:30:48.581Z,9.80
2023-04-21T14:33:15.321Z,9.25
2023-04-21T14:35:42.101Z,9.60
2023-04-21T14:38:08.778Z,9.45
2023-04-21T14:40:35.445Z,9.55
2023-04-21T14:43:02.215Z,9.02
2023-04-21T14:45:28.967Z,9.50
2023-04-21T14:47:55.731Z,8.55
2023-04-21T14:50:22.589Z,9.15
2023-04-21T14:52:49.733Z,8.25
2023-04-21T14:55:16.951Z,8.48
2023-04-21T14:57:43.760Z,8.38
2023-04-21T15:00:11.407Z,8.48
2023-04-21T15:02:39.471Z,8.45
2023-04-21T15:05:08.067Z,8.43
2023-04-21T15:07:34.942Z,9.07
2023-04-21T15:10:01.655Z,8.77
2023-04-21T15:12:28.315Z,9.70
2023-04-21T15:14:54.984Z,9.00
2023-04-21T15:17:21.760Z,8.68
2023-04-21T15:19:48.581Z,8.48
2023-04-21T15:22:15.476Z,7.95
2023-04-21T15:24:42.364Z,8.57
2023-04-21T15:27:08.993Z,8.18
2023-04-21T15:29:36.076Z,8.48
2023-04-21T15:32:03.517Z,8.32
2023-04-21T15:34:30.208Z,7.80
2023-04-21T15:36:57.086Z,7.82
2023-04-21T15:39:23.801Z,8.00
2023-04-21T15:41:50.675Z,8.68
2023-04-21T15:44:17.458Z,9.07
2023-04-21T15:46:44.242Z,8.68
2023-04-21T15:49:10.927Z,7.78
2023-04-21T15:51:37.815Z,9.50
2023-04-21T15:54:04.914Z,9.50
2023-04-21T15:56:31.627Z,8.60
2023-04-21T15:58:58.344Z,9.35
2023-04-21T16:01:25.038Z,8.50
2023-04-21T16:03:52.205Z,9.30
2023-04-21T16:06:20.810Z,8.60
2023-04-21T16:08:47.578Z,7.88
2023-04-21T16:11:14.332Z,8.70
2023-04-21T16:13:41.225Z,8.27
2023-04-21T16:16:08.951Z,7.30
2023-04-21T16:18:36.066Z,7.25
2023-04-21T16:21:02.979Z,7.65
2023-04-21T16:23:30.013Z,7.88
2023-04-21T16:25:57.133Z,7.90
2023-04-21T16:28:23.793Z,7.60
2023-04-21T16:30:50.440Z,7.78
2023-04-21T16:33:17.145Z,7.63
2023-04-21T16:35:43.907Z,7.85
2023-04-21T16:38:11.162Z,7.55
2023-04-21T16:40:38.081Z,8.35
2023-04-21T16:43:04.785Z,8.77
2023-04-21T16:45:31.572Z,8.00
2023-04-21T16:47:58.325Z,8.00
2023-04-21T16:50:25.419Z,7.40
2023-04-21T16:52:52.163Z,7.70
2023-04-21T16:55:19.309Z,7.38
2023-04-21T16:57:46.211Z,7.03
2023-04-21T17:00:13.891Z,7.18
2023-04-21T17:02:40.725Z,8.38
2023-04-21T17:05:07.906Z,7.40
2023-04-21T17:07:35.233Z,7.15
2023-04-21T17:10:02.098Z,8.27
2023-04-21T17:12:28.778Z,7.93
2023-04-21T17:14:55.513Z,7.68
2023-04-21T17:17:22.303Z,7.38
2023-04-21T17:19:49.130Z,6.73
2023-04-21T17:22:15.836Z,8.65
2023-04-21T17:24:52.514Z,8.32
2023-04-21T17:27:20.761Z,7.20
2023-04-21T17:29:47.469Z,7.15
2023-04-21T17:32:14.468Z,7.18
2023-04-21T17:34:41.245Z,7.28
2023-04-21T17:37:07.911Z,5.95
2023-04-21T17:39:34.563Z,4.63
2023-04-21T17:42:02.431Z,4.28
2023-04-21T17:44:29.206Z,4.00
2023-04-21T17:46:55.907Z,4.57
2023-04-21T17:49:24.690Z,5.05
2023-04-21T17:51:51.695Z,5.05
2023-04-21T17:54:18.398Z,5.43
2023-04-21T17:56:47.874Z,5.10
2023-04-21T17:59:14.593Z,5.50
2023-04-21T18:01:41.422Z,5.57
2023-04-21T18:04:08.587Z,5.75
2023-04-21T18:06:36.343Z,7.35
2023-04-21T18:09:04.967Z,6.75
2023-04-21T18:11:31.901Z,6.90
2023-04-21T18:13:58.767Z,7.82
2023-04-21T18:16:26.296Z,7.13
2023-04-21T18:18:53.011Z,7.38
2023-04-21T18:21:19.669Z,7.25
2023-04-21T18:23:46.540Z,8.82
2023-04-21T18:26:13.185Z,7.85
2023-04-21T18:28:39.825Z,8.35
2023-04-21T18:31:06.542Z,8.75
2023-04-21T18:33:33.374Z,8.15
2023-04-21T18:36:00.070Z,9.02
2023-04-21T18:38:26.749Z,7.70
2023-04-21T18:40:53.388Z,7.20
2023-04-21T18:43:20.147Z,7.10
2023-04-21T18:45:46.793Z,7.50
2023-04-21T18:48:13.447Z,10.25
2023-04-21T18:50:40.856Z,9.48
2023-04-21T18:53:08.460Z,9.80
2023-04-21T18:55:36.034Z,8.20
2023-04-21T18:58:03.068Z,7.22
2023-04-21T19:00:31.849Z,7.28
2023-04-21T19:03:01.856Z,7.28
2023-04-21T19:05:31.082Z,9.45
2023-04-21T19:07:58.455Z,10.90
2023-04-21T19:10:25.839Z,12.32
2023-04-21T19:12:52.595Z,10.20
2023-04-21T19:15:20.126Z,9.00
2023-04-21T19:17:46.870Z,8.40
2023-04-21T19:20:13.584Z,7.97
2023-04-21T19:22:40.233Z,8.70
2023-04-21T19:25:08.451Z,8.38
2023-04-21T19:27:36.094Z,8.25
2023-04-21T19:30:03.135Z,8.57
2023-04-21T19:32:30.495Z,8.60
2023-04-21T19:34:57.357Z,8.60
2023-04-21T19:37:25.715Z,8.77
2023-04-21T19:39:52.429Z,8.85
2023-04-21T19:42:19.090Z,9.50
2023-04-21T19:44:45.817Z,9.70
2023-04-21T19:47:12.434Z,8.77
2023-04-21T19:49:40.262Z,8.68
2023-04-21T19:52:06.928Z,9.63
2023-04-21T19:54:33.628Z,9.20
2023-04-21T19:57:01.625Z,8.38
2023-04-21T19:59:28.322Z,8.90
2023-04-21T20:01:55.157Z,8.65
2023-04-21T20:04:22.019Z,9.27
2023-04-21T20:06:48.945Z,9.07
2023-04-21T20:09:16.011Z,11.73
2023-04-21T20:11:42.897Z,11.93
2023-04-21T20:14:09.519Z,11.45
2023-04-21T20:16:37.168Z,11.88
2023-04-21T20:19:04.566Z,11.90
2023-04-21T20:21:32.368Z,10.60
2023-04-21T20:23:59.006Z,11.55
2023-04-21T20:26:25.933Z,11.05
2023-04-21T20:28:52.587Z,10.75
2023-04-21T20:31:23.568Z,10.55
2023-04-21T20:33:50.449Z,12.00
2023-04-21T20:36:18.360Z,10.60
2023-04-21T20:38:46.282Z,10.65
2023-04-21T20:41:13.448Z,9.60
2023-04-21T20:43:40.336Z,9.82
2023-04-21T20:46:08.749Z,9.65
2023-04-21T20:48:35.507Z,10.25
2023-04-21T20:51:02.694Z,10.35
2023-04-21T20:53:29.364Z,10.43
2023-04-21T20:55:55.996Z,11.73
2023-04-21T20:58:24.361Z,9.85
2023-04-21T21:00:51.092Z,10.70
2023-04-21T21:03:20.239Z,10.80
2023-04-21T21:05:47.436Z,9.73
2023-04-21T21:08:14.903Z,9.90
2023-04-21T21:10:41.882Z,9.70
2023-04-21T21:13:08.631Z,10.57
2023-04-21T21:15:35.446Z,10.25
2023-04-21T21:18:02.467Z,10.20
2023-04-21T21:20:29.197Z,9.20
2023-04-21T21:22:55.880Z,10.57
2023-04-21T21:25:22.552Z,10.30
2023-04-21T21:27:49.232Z,10.10
2023-04-21T21:30:15.923Z,9.90
2023-04-21T21:32:42.639Z,8.82
2023-04-21T21:35:10.308Z,9.70
2023-04-21T21:37:37.232Z,10.10
2023-04-21T21:40:04.326Z,9.13
2023-04-21T21:42:30.963Z,10.00
2023-04-21T21:44:57.690Z,10.10
2023-04-21T21:47:24.435Z,10.88
2023-04-21T21:49:54.652Z,10.35
2023-04-21T21:52:21.788Z,11.10
2023-04-21T21:54:48.415Z,10.40
2023-04-21T21:57:15.139Z,10.63
2023-04-21T21:59:41.930Z,10.23
2023-04-21T22:02:08.735Z,9.73
2023-04-21T22:04:35.922Z,10.77
2023-04-21T22:07:03.607Z,9.98
2023-04-21T22:09:30.404Z,9.73
2023-04-21T22:11:57.151Z,10.10
2023-04-21T22:14:24.274Z,9.57
2023-04-21T22:16:53.091Z,11.23
2023-04-21T22:19:20.393Z,9.73
2023-04-21T22:21:47.262Z,10.80
2023-04-21T22:24:14.345Z,10.55
2023-04-21T22:26:41.957Z,10.00
2023-04-21T22:29:08.670Z,9.90
2023-04-21T22:31:35.500Z,10.25
2023-04-21T22:34:02.241Z,9.40
2023-04-21T22:36:28.970Z,9.57
2023-04-21T22:38:55.992Z,9.27
2023-04-21T22:41:22.906Z,10.35
2023-04-21T22:43:49.541Z,10.80
2023-04-21T22:46:16.291Z,9.55
2023-04-21T22:48:46.230Z,9.40
2023-04-21T22:51:14.356Z,10.38
2023-04-21T22:53:41.097Z,9.07
2023-04-21T22:56:07.780Z,8.93
2023-04-21T22:58:34.489Z,8.82
2023-04-21T23:01:01.798Z,9.55
2023-04-21T23:03:28.725Z,9.00
2023-04-21T23:05:55.641Z,9.40
2023-04-21T23:08:22.309Z,10.05
2023-04-21T23:10:48.973Z,10.10
2023-04-21T23:13:15.775Z,9.68
2023-04-21T23:15:42.423Z,9.52
2023-04-21T23:18:09.073Z,9.63
2023-04-21T23:20:35.825Z,9.30
2023-04-21T23:23:02.518Z,9.05
2023-04-21T23:25:29.197Z,9.25
2023-04-21T23:27:55.850Z,10.73
2023-04-21T23:30:22.539Z,11.55
2023-04-21T23:32:50.227Z,13.88
2023-04-21T23:35:17.040Z,15.80
2023-04-21T23:37:43.718Z,15.63
2023-04-21T23:40:11.024Z,13.85
2023-04-21T23:42:38.723Z,14.52
2023-04-21T23:45:06.472Z,12.77
2023-04-21T23:47:33.447Z,12.00
2023-04-21T23:50:00.377Z,11.00
2023-04-21T23:52:27.079Z,10.38
2023-04-21T23:54:53.748Z,9.70
2023-04-21T23:57:20.420Z,8.88
2023-04-21T23:59:47.070Z,10.73
